Time;durP1;ratioP1;P1;durP2;ratioP2;P2;SDS_P1;SDS_P2;PMS_P1;PMS_P2;Temp;Humidity;BMP_temperature;BMP_pressure;BME280_temperature;BME280_humidity;BME280_pressure;Samples;Min_cycle;Max_cycle;Signal;HPM_P1;HPM_P2
2021/06/17 00:00:12;;;;;;;;;;;;;;;27.26;35.48;100313.50;5251525;27;33351;-92
2021/06/17 00:02:41;;;;;;;;;;;;;;;27.89;34.24;100307.59;5252748;27;32078;-92
2021/06/17 00:05:09;;;;;;;;;;;;;;;27.46;35.06;100314.34;5252410;27;33324;-92
2021/06/17 00:07:38;;;;;;;;;;;;;;;27.24;35.50;100315.44;5269967;26;33896;-93
2021/06/17 00:10:07;;;;;;;;;;;;;;;27.17;35.73;100315.16;5251410;27;33185;-91
2021/06/17 00:12:36;;;;;;;;;;;;;;;27.24;35.59;100315.44;5245116;27;32142;-92
2021/06/17 00:15:07;;;;;;;;;;;;;;;27.99;34.02;100303.06;5243105;27;33783;-91
2021/06/17 00:17:36;;;;;;;;;;;;;;;28.23;33.61;100308.91;5242883;27;34270;-93
2021/06/17 00:20:04;;;;;;;;;;;;;;;27.63;34.80;100316.28;5260048;27;33203;-93
2021/06/17 00:22:33;;;;;;;;;;;;;;;27.46;35.06;100317.00;5242741;27;32551;-91
2021/06/17 00:25:01;;;;;;;;;;;;;;;28.05;33.98;100311.53;5242418;27;33011;-93
2021/06/17 00:27:29;;;;;;;;;;;;;;;27.29;35.23;100316.69;5243703;27;33016;-92
2021/06/17 00:29:59;;;;;;;;;;;;;;;27.47;34.88;100313.34;5244083;27;33159;-91
2021/06/17 00:32:27;;;;;;;;;;;;;;;27.30;35.13;100318.41;5243484;27;32682;-92
2021/06/17 00:34:55;;;;;;;;;;;;;;;27.20;35.20;100320.22;5243919;27;33209;-92
2021/06/17 00:37:24;;;;;;;;;;;;;;;26.91;35.78;100321.09;5244103;27;33101;-92
2021/06/17 00:39:52;;;;;;;;;;;;;;;27.04;35.41;100323.47;5243645;27;32833;-94
2021/06/17 00:42:19;;;;;;;;;;;;;;;27.06;35.25;100324.19;5243680;27;32056;-92
2021/06/17 00:44:52;;;;;;;;;;;;;;;26.61;36.09;100322.81;5244871;27;32956;-92
2021/06/17 00:47:20;;;;;;;;;;;;;;;26.16;36.95;100328.59;5244273;27;33805;-92
2021/06/17 00:50:04;;;;;;;;;;;;;;;27.15;34.89;100330.50;5208332;27;32853;-92
2021/06/17 00:52:34;;;;;;;;;;;;;;;26.93;35.31;100327.12;5201665;27;32007;-92
2021/06/17 00:55:02;;;;;;;;;;;;;;;26.54;36.12;100326.19;5236032;27;33917;-91
2021/06/17 00:57:30;;;;;;;;;;;;;;;27.11;34.95;100321.06;5201014;27;32957;-92
2021/06/17 00:59:59;;;;;;;;;;;;;;;26.44;36.22;100320.81;5201199;27;32780;-92
2021/06/17 01:02:26;;;;;;;;;;;;;;;27.46;34.12;100333.06;5201772;27;33018;-92
2021/06/17 01:05:04;;;;;;;;;;;;;;;27.13;34.83;100319.13;5203303;27;33798;-92
2021/06/17 01:07:37;;;;;;;;;;;;;;;27.29;34.46;100323.91;5201402;27;33000;-92
2021/06/17 01:10:12;;;;;;;;;;;;;;;27.07;34.88;100317.84;5218668;27;32937;-91
2021/06/17 01:12:40;;;;;;;;;;;;;;;26.57;35.89;100313.41;5201743;27;33224;-92
2021/06/17 01:15:09;;;;;;;;;;;;;;;26.60;35.95;100318.47;5219725;27;32707;-92
2021/06/17 01:17:42;;;;;;;;;;;;;;;27.00;35.17;100304.22;5202484;27;33393;-93
2021/06/17 01:20:12;;;;;;;;;;;;;;;27.13;34.86;100316.44;5213372;27;32881;-92
2021/06/17 01:22:49;;;;;;;;;;;;;;;26.45;36.25;100309.16;5235369;27;33127;-93
2021/06/17 01:25:23;;;;;;;;;;;;;;;26.40;36.28;100314.87;5252766;27;34034;-92
2021/06/17 01:28:05;;;;;;;;;;;;;;;26.38;36.40;100308.00;5217946;27;34391;-91
2021/06/17 01:30:36;;;;;;;;;;;;;;;26.24;36.59;100306.56;5218453;27;34569;-92
2021/06/17 01:33:04;;;;;;;;;;;;;;;26.41;36.35;100316.59;5217901;27;33073;-92
2021/06/17 01:35:34;;;;;;;;;;;;;;;26.90;35.40;100311.37;5235430;27;33827;-92
2021/06/17 01:38:03;;;;;;;;;;;;;;;26.77;35.67;100313.47;5235269;27;34245;-92
2021/06/17 01:40:31;;;;;;;;;;;;;;;26.79;35.63;100316.84;5235643;27;33915;-92
2021/06/17 01:42:59;;;;;;;;;;;;;;;26.10;36.76;100313.97;5217602;27;33633;-92
2021/06/17 01:45:29;;;;;;;;;;;;;;;26.82;35.35;100319.25;5218263;27;34037;-92
2021/06/17 01:47:57;;;;;;;;;;;;;;;26.95;35.11;100306.44;5222508;27;34144;-92
2021/06/17 01:50:25;;;;;;;;;;;;;;;26.70;35.68;100307.81;5233627;27;32904;-93
2021/06/17 01:52:54;;;;;;;;;;;;;;;26.71;35.56;100306.84;5240250;27;32193;-91
2021/06/17 01:55:22;;;;;;;;;;;;;;;26.81;35.33;100307.69;5239962;27;33327;-92
2021/06/17 01:57:50;;;;;;;;;;;;;;;26.54;35.89;100304.81;5222081;27;34615;-92
2021/06/17 02:00:18;;;;;;;;;;;;;;;26.51;36.00;100305.91;5222713;27;33107;-92
2021/06/17 02:02:47;;;;;;;;;;;;;;;26.72;35.42;100303.19;5222837;27;32271;-93
2021/06/17 02:05:14;;;;;;;;;;;;;;;27.09;34.69;100299.00;5257631;27;33471;-91
2021/06/17 02:07:44;;;;;;;;;;;;;;;27.25;34.45;100301.09;5222821;27;32838;-92
2021/06/17 02:10:16;;;;;;;;;;;;;;;26.96;34.89;100300.12;5240252;27;32615;-92
2021/06/17 02:12:44;;;;;;;;;;;;;;;26.91;34.94;100302.38;5240211;27;31925;-93
2021/06/17 02:15:12;;;;;;;;;;;;;;;26.51;35.59;100305.91;5222620;27;33406;-93
2021/06/17 02:17:42;;;;;;;;;;;;;;;26.44;35.79;100302.13;5312689;27;33173;-91
2021/06/17 02:20:12;;;;;;;;;;;;;;;26.83;34.99;100305.75;5240022;27;33774;-92
2021/06/17 02:22:42;;;;;;;;;;;;;;;26.60;35.44;100307.75;5240056;27;31841;-93
2021/06/17 02:25:18;;;;;;;;;;;;;;;26.54;35.61;100312.81;5240851;27;32763;-92
2021/06/17 02:27:47;;;;;;;;;;;;;;;26.32;36.09;100310.22;5239778;27;34091;-92
2021/06/17 02:30:16;;;;;;;;;;;;;;;26.30;36.05;100306.03;5257084;27;32876;-96
2021/06/17 02:32:50;;;;;;;;;;;;;;;26.36;36.01;100309.97;5222149;27;32126;-91
2021/06/17 02:35:20;;;;;;;;;;;;;;;26.14;36.22;100318.03;5312712;27;32501;-92
2021/06/17 02:37:57;;;;;;;;;;;;;;;25.98;36.55;100317.66;5239800;27;33362;-93
2021/06/17 02:40:26;;;;;;;;;;;;;;;25.78;36.94;100314.03;5240255;27;34197;-93
2021/06/17 02:43:03;;;;;;;;;;;;;;;26.29;35.93;100307.84;5240812;27;32226;-92
2021/06/17 02:45:33;;;;;;;;;;;;;;;26.32;35.75;100309.38;5239699;27;33156;-92
2021/06/17 02:48:01;;;;;;;;;;;;;;;26.17;35.95;100316.94;5239670;27;33430;-91
2021/06/17 02:50:30;;;;;;;;;;;;;;;26.12;36.05;100311.97;5228299;27;33249;-91
2021/06/17 02:52:58;;;;;;;;;;;;;;;26.12;35.94;100317.31;5242131;27;31735;-92
2021/06/17 02:55:27;;;;;;;;;;;;;;;25.68;36.79;100312.16;5239936;27;32996;-91
2021/06/17 02:57:56;;;;;;;;;;;;;;;26.11;36.17;100314.78;5221875;27;33024;-91
2021/06/17 03:00:26;;;;;;;;;;;;;;;25.90;36.55;100320.12;5257312;26;33002;-92
2021/06/17 03:03:05;;;;;;;;;;;;;;;25.84;36.64;100300.16;5257289;27;32119;-92
2021/06/17 03:05:42;;;;;;;;;;;;;;;26.04;36.41;100311.81;5239305;27;32811;-92
2021/06/17 03:08:18;;;;;;;;;;;;;;;26.19;36.16;100312.28;5222392;27;33316;-91
2021/06/17 03:10:51;;;;;;;;;;;;;;;25.85;36.98;100307.22;5312565;27;33070;-92
2021/06/17 03:13:19;;;;;;;;;;;;;;;25.62;37.36;100310.03;5239678;27;32023;-92
2021/06/17 03:15:46;;;;;;;;;;;;;;;25.55;37.32;100308.00;5239832;27;33159;-91
2021/06/17 03:18:14;;;;;;;;;;;;;;;26.08;36.22;100307.06;5223154;27;33108;-91
2021/06/17 03:20:43;;;;;;;;;;;;;;;25.61;37.24;100308.34;5225568;27;33049;-92
2021/06/17 03:23:32;;;;;;;;;;;;;;;25.99;36.56;100309.53;5250112;27;32003;-92
2021/06/17 03:26:02;;;;;;;;;;;;;;;25.93;36.63;100312.72;5247102;27;33038;-91
2021/06/17 03:28:31;;;;;;;;;;;;;;;26.00;36.62;100313.88;5249237;27;32975;-92
2021/06/17 03:30:58;;;;;;;;;;;;;;;25.96;36.75;100320.47;5232053;27;32510;-92
2021/06/17 03:33:27;;;;;;;;;;;;;;;25.49;37.84;100314.72;5233723;27;33226;-92
2021/06/17 03:36:00;;;;;;;;;;;;;;;25.88;37.07;100314.94;5247152;27;34111;-92
2021/06/17 03:38:28;;;;;;;;;;;;;;;25.92;36.98;100316.38;5225068;27;33690;-91
2021/06/17 03:40:56;;;;;;;;;;;;;;;26.51;35.91;100321.94;5239904;27;32961;-91
2021/06/17 03:43:27;;;;;;;;;;;;;;;26.51;35.85;100311.25;5240386;27;32354;-92
2021/06/17 03:45:58;;;;;;;;;;;;;;;26.62;35.56;100323.69;5223388;27;32946;-93
2021/06/17 03:48:27;;;;;;;;;;;;;;;26.79;35.41;100314.16;5223300;27;33339;-92
2021/06/17 03:50:55;;;;;;;;;;;;;;;27.04;34.97;100319.97;5222926;27;32959;-93
2021/06/17 03:53:23;;;;;;;;;;;;;;;27.31;34.46;100324.63;5222181;27;32328;-92
2021/06/17 03:55:53;;;;;;;;;;;;;;;27.44;34.32;100329.69;5222612;27;32809;-93
2021/06/17 03:58:25;;;;;;;;;;;;;;;27.30;34.68;100320.25;5223930;27;33388;-93
2021/06/17 04:00:56;;;;;;;;;;;;;;;27.63;34.12;100316.28;5240903;27;33416;-93
2021/06/17 04:03:31;;;;;;;;;;;;;;;27.40;34.71;100312.22;5226745;27;31851;-92
2021/06/17 04:05:59;;;;;;;;;;;;;;;27.41;34.77;100313.91;5241565;27;33523;-92
2021/06/17 04:08:29;;;;;;;;;;;;;;;27.36;35.03;100319.66;5205863;27;32862;-94
2021/06/17 04:10:59;;;;;;;;;;;;;;;27.64;34.70;100317.09;5223847;27;32610;-92
2021/06/17 04:13:28;;;;;;;;;;;;;;;27.65;34.73;100316.13;5237957;27;32139;-88
2021/06/17 04:15:56;;;;;;;;;;;;;;;27.85;34.55;100319.59;5255258;27;34713;-89
2021/06/17 04:18:24;;;;;;;;;;;;;;;28.08;34.34;100311.22;5236970;27;33064;-89
2021/06/17 04:20:53;;;;;;;;;;;;;;;28.00;34.67;100312.78;5237178;27;32744;-89
2021/06/17 04:23:21;;;;;;;;;;;;;;;27.86;35.04;100312.41;5254990;27;32346;-88
2021/06/17 04:25:48;;;;;;;;;;;;;;;28.18;34.55;100312.03;5255540;27;34731;-88
2021/06/17 04:28:16;;;;;;;;;;;;;;;28.26;34.47;100306.75;5237133;27;33754;-89
2021/06/17 04:30:44;;;;;;;;;;;;;;;28.35;34.25;100305.03;5219303;27;33180;-88
2021/06/17 04:33:13;;;;;;;;;;;;;;;28.67;33.64;100303.75;5236749;27;32436;-88
2021/06/17 04:35:41;;;;;;;;;;;;;;;28.83;33.58;100305.75;5236818;27;33175;-89
2021/06/17 04:38:11;;;;;;;;;;;;;;;28.80;33.95;100301.53;5255154;27;33892;-88
2021/06/17 04:40:38;;;;;;;;;;;;;;;28.55;34.65;100311.13;5236919;27;33182;-88
2021/06/17 04:43:06;;;;;;;;;;;;;;;29.02;33.77;100302.06;5254374;27;33134;-88
2021/06/17 04:45:33;;;;;;;;;;;;;;;29.29;33.37;100308.34;5236868;27;32932;-87
2021/06/17 04:48:05;;;;;;;;;;;;;;;29.68;32.83;100309.78;5236418;26;34870;-87
2021/06/17 04:50:32;;;;;;;;;;;;;;;29.69;33.00;100308.81;5237171;27;32865;-87
2021/06/17 04:53:09;;;;;;;;;;;;;;;29.90;32.56;100313.81;5237104;27;32765;-88
2021/06/17 04:55:55;;;;;;;;;;;;;;;30.05;32.36;100317.59;5236802;27;33049;-87
2021/06/17 04:58:25;;;;;;;;;;;;;;;30.65;31.37;100316.66;5254584;27;33490;-92
2021/06/17 05:00:53;;;;;;;;;;;;;;;30.65;29.85;100313.16;5328164;26;33072;-89
2021/06/17 05:03:20;;;;;;;;;;;;;;;30.90;28.95;100310.47;5254082;27;31862;-89
2021/06/17 05:05:51;;;;;;;;;;;;;;;29.88;30.30;100316.66;5238432;27;33884;-89
2021/06/17 05:10:52;;;;;;;;;;;;;;;29.48;31.12;100312.72;5245742;27;32573;-88
2021/06/17 05:13:21;;;;;;;;;;;;;;;30.05;30.16;100312.22;5226807;27;33266;-90
2021/06/17 05:15:49;;;;;;;;;;;;;;;30.74;29.01;100322.91;5238691;27;32920;-91
2021/06/17 05:18:18;;;;;;;;;;;;;;;30.55;29.39;100317.81;5237876;27;33279;-90
2021/06/17 05:20:45;;;;;;;;;;;;;;;31.09;28.30;100322.81;5255456;27;33793;-90
2021/06/17 05:23:14;;;;;;;;;;;;;;;30.41;28.89;100327.34;5237063;27;32391;-89
2021/06/17 05:25:42;;;;;;;;;;;;;;;30.52;28.29;100318.16;5255499;27;32933;-89
2021/06/17 05:28:14;;;;;;;;;;;;;;;30.17;28.79;100330.75;5257633;27;33166;-90
2021/06/17 05:30:42;;;;;;;;;;;;;;;30.46;28.21;100335.75;5242500;27;32892;-92
2021/06/17 05:33:10;;;;;;;;;;;;;;;31.29;27.05;100326.00;5238019;27;32366;-91
2021/06/17 05:35:38;;;;;;;;;;;;;;;31.29;26.74;100332.22;5237786;27;33958;-89
2021/06/17 05:38:07;;;;;;;;;;;;;;;30.77;27.48;100333.34;5238663;27;33728;-89
2021/06/17 05:40:35;;;;;;;;;;;;;;;30.34;28.28;100332.50;5255107;27;34580;-89
2021/06/17 05:43:03;;;;;;;;;;;;;;;30.59;28.18;100335.31;5255069;27;32851;-90
2021/06/17 05:45:30;;;;;;;;;;;;;;;31.69;26.62;100336.94;5328865;26;33237;-90
2021/06/17 05:47:58;;;;;;;;;;;;;;;31.87;26.16;100342.13;5218942;27;33301;-90
2021/06/17 05:50:25;;;;;;;;;;;;;;;31.87;26.26;100342.97;5236871;27;32825;-89
2021/06/17 05:52:53;;;;;;;;;;;;;;;32.12;25.85;100340.19;5236773;27;32475;-88
2021/06/17 05:55:20;;;;;;;;;;;;;;;31.78;26.28;100341.31;5236825;27;32956;-88
2021/06/17 05:57:48;;;;;;;;;;;;;;;32.14;25.49;100346.25;5236610;27;33145;-88
2021/06/17 06:00:16;;;;;;;;;;;;;;;31.70;26.27;100360.16;5219450;27;32989;-91
2021/06/17 06:02:45;;;;;;;;;;;;;;;32.07;25.79;100361.41;5237138;27;34404;-89
2021/06/17 06:05:12;;;;;;;;;;;;;;;31.73;26.40;100362.53;5238178;27;33803;-87
2021/06/17 06:07:41;;;;;;;;;;;;;;;31.41;26.71;100358.81;5238685;27;33979;-88
2021/06/17 06:10:11;;;;;;;;;;;;;;;32.20;25.56;100361.75;5254711;27;33901;-86
2021/06/17 06:12:38;;;;;;;;;;;;;;;31.33;26.59;100359.66;5238301;27;32542;-91
2021/06/17 06:15:06;;;;;;;;;;;;;;;31.11;27.31;100369.22;5255574;27;33694;-90
2021/06/17 06:17:37;;;;;;;;;;;;;;;32.34;25.40;100362.06;5235885;27;33240;-91
2021/06/17 06:20:06;;;;;;;;;;;;;;;32.25;25.51;100362.06;5237444;27;32804;-92
2021/06/17 06:22:34;;;;;;;;;;;;;;;31.83;26.09;100367.72;5219760;27;32205;-91
2021/06/17 06:25:03;;;;;;;;;;;;;;;32.50;25.12;100364.66;5219790;27;32893;-92
2021/06/17 06:27:31;;;;;;;;;;;;;;;32.76;24.90;100369.78;5237176;27;34056;-92
2021/06/17 06:30:02;;;;;;;;;;;;;;;32.60;25.26;100369.84;5237000;27;32623;-87
2021/06/17 06:32:31;;;;;;;;;;;;;;;32.64;25.15;100368.47;5237287;27;34059;-88
2021/06/17 06:34:58;;;;;;;;;;;;;;;32.53;25.27;100368.87;5236039;27;33877;-89
2021/06/17 06:37:27;;;;;;;;;;;;;;;31.63;26.79;100374.31;5237622;27;34258;-88
2021/06/17 06:39:55;;;;;;;;;;;;;;;32.18;25.91;100373.72;5219411;27;32872;-89
2021/06/17 06:42:23;;;;;;;;;;;;;;;32.69;25.10;100374.16;5236715;27;33723;-89
2021/06/17 06:44:50;;;;;;;;;;;;;;;33.29;24.37;100369.97;5236923;27;33937;-89
2021/06/17 06:47:18;;;;;;;;;;;;;;;33.32;24.47;100363.38;5254602;26;34045;-89
2021/06/17 06:49:45;;;;;;;;;;;;;;;32.60;25.45;100368.00;5236334;27;32610;-89
2021/06/17 06:52:13;;;;;;;;;;;;;;;33.37;24.56;100369.03;5219528;27;32282;-89
2021/06/17 06:54:41;;;;;;;;;;;;;;;33.11;25.08;100369.41;5254593;27;34165;-90
2021/06/17 06:57:08;;;;;;;;;;;;;;;32.71;25.53;100373.97;5236221;27;34259;-90
2021/06/17 06:59:36;;;;;;;;;;;;;;;33.61;24.35;100370.69;5236595;27;33878;-88
2021/06/17 07:02:04;;;;;;;;;;;;;;;33.76;24.42;100376.13;5237340;27;32505;-88
2021/06/17 07:04:33;;;;;;;;;;;;;;;33.00;25.33;100377.91;5236397;27;33622;-88
2021/06/17 07:07:05;;;;;;;;;;;;;;;33.10;25.16;100378.50;5256269;27;34130;-88
2021/06/17 07:09:32;;;;;;;;;;;;;;;32.60;25.80;100391.41;5200996;27;979806;-88
2021/06/17 07:12:02;;;;;;;;;;;;;;;33.54;24.42;100383.25;5236258;27;32282;-88
2021/06/17 07:14:31;;;;;;;;;;;;;;;32.92;25.65;100384.19;5236962;27;35243;-88
2021/06/17 07:16:58;;;;;;;;;;;;;;;34.42;23.58;100393.53;5254194;27;33231;-88
2021/06/17 07:19:26;;;;;;;;;;;;;;;34.02;24.02;100384.84;5236636;27;33005;-88
2021/06/17 07:21:54;;;;;;;;;;;;;;;34.65;23.23;100393.41;5235823;27;32545;-88
2021/06/17 07:24:22;;;;;;;;;;;;;;;33.42;24.81;100395.50;5254470;27;33803;-88
2021/06/17 07:26:51;;;;;;;;;;;;;;;33.96;24.00;100381.84;5236256;27;33381;-87
2021/06/17 07:29:20;;;;;;;;;;;;;;;34.60;23.11;100388.53;5237145;27;32893;-89
2021/06/17 07:31:47;;;;;;;;;;;;;;;34.56;23.07;100391.84;5237049;27;32382;-88
2021/06/17 07:34:14;;;;;;;;;;;;;;;34.83;22.67;100390.28;5219806;27;32521;-89
2021/06/17 07:36:43;;;;;;;;;;;;;;;34.08;23.80;100386.81;5219297;27;34293;-89
2021/06/17 07:39:11;;;;;;;;;;;;;;;33.92;24.87;100385.13;5254929;27;34803;-89
2021/06/17 07:41:38;;;;;;;;;;;;;;;34.41;23.90;100383.72;5255137;27;33101;-88
2021/06/17 07:44:06;;;;;;;;;;;;;;;34.77;23.25;100385.63;5220035;27;33095;-89
2021/06/17 07:46:33;;;;;;;;;;;;;;;34.77;22.37;100383.75;5236571;27;33357;-89
2021/06/17 07:49:01;;;;;;;;;;;;;;;35.35;21.37;100382.09;5236495;27;34273;-89
2021/06/17 07:51:29;;;;;;;;;;;;;;;34.71;22.00;100383.69;5236759;27;33775;-89
2021/06/17 07:53:59;;;;;;;;;;;;;;;34.50;22.04;100377.19;5236483;27;32924;-89
2021/06/17 07:56:28;;;;;;;;;;;;;;;34.82;21.88;100379.63;5236085;27;34540;-89
2021/06/17 07:58:55;;;;;;;;;;;;;;;35.11;21.61;100374.12;5235954;27;33019;-89
2021/06/17 08:01:23;;;;;;;;;;;;;;;35.03;21.80;100379.69;5236070;27;32390;-89
2021/06/17 08:03:52;;;;;;;;;;;;;;;35.56;21.25;100381.22;5236175;27;34377;-88
2021/06/17 08:06:19;;;;;;;;;;;;;;;35.47;21.31;100380.53;5235964;27;33219;-89
2021/06/17 08:08:47;;;;;;;;;;;;;;;34.92;22.29;100377.50;5236031;27;33691;-88
2021/06/17 08:11:15;;;;;;;;;;;;;;;35.65;21.35;100376.47;5236073;27;33282;-89
2021/06/17 08:13:58;;;;;;;;;;;;;;;35.43;21.49;100376.53;5256737;27;33671;-89
2021/06/17 08:16:26;;;;;;;;;;;;;;;35.50;21.38;100382.00;5253720;27;35485;-89
2021/06/17 08:18:54;;;;;;;;;;;;;;;36.26;20.02;100373.16;5236237;27;33675;-89
2021/06/17 08:21:22;;;;;;;;;;;;;;;36.13;20.18;100364.94;5253756;27;32327;-89
2021/06/17 08:23:54;;;;;;;;;;;;;;;35.64;20.99;100369.41;5253818;27;34045;-89
2021/06/17 08:26:21;;;;;;;;;;;;;;;35.56;20.92;100371.22;5236505;27;32958;-88
2021/06/17 08:28:49;;;;;;;;;;;;;;;35.33;20.90;100371.47;5235992;27;33949;-89
2021/06/17 08:31:16;;;;;;;;;;;;;;;35.77;20.49;100374.94;5236004;27;32022;-89
2021/06/17 08:33:44;;;;;;;;;;;;;;;35.31;20.85;100384.31;5253502;27;35113;-89
2021/06/17 08:36:11;;;;;;;;;;;;;;;35.72;20.24;100382.81;5235816;27;34193;-90
2021/06/17 08:38:40;;;;;;;;;;;;;;;36.25;19.66;100374.19;5235740;27;33755;-88
2021/06/17 08:41:08;;;;;;;;;;;;;;;36.36;19.47;100378.22;5218415;27;33388;-89
2021/06/17 08:43:52;;;;;;;;;;;;;;;36.33;19.64;100384.03;5239225;27;32493;-89
2021/06/17 08:46:20;;;;;;;;;;;;;;;36.69;19.18;100369.37;5218519;27;33433;-89
2021/06/17 08:48:49;;;;;;;;;;;;;;;36.29;19.75;100380.88;5219410;27;32904;-89
2021/06/17 08:51:17;;;;;;;;;;;;;;;36.90;18.87;100380.09;5255773;27;33238;-89
2021/06/17 08:53:47;;;;;;;;;;;;;;;36.46;19.41;100381.41;5237133;27;33071;-89
2021/06/17 08:56:15;;;;;;;;;;;;;;;35.88;20.11;100385.22;5237033;27;33905;-89
2021/06/17 08:58:45;;;;;;;;;;;;;;;36.45;19.43;100385.16;5236895;27;33800;-89
2021/06/17 09:01:13;;;;;;;;;;;;;;;35.58;20.71;100381.84;5237124;27;32885;-89
2021/06/17 09:03:42;;;;;;;;;;;;;;;36.10;20.31;100387.88;5236682;27;34208;-90
2021/06/17 09:06:10;;;;;;;;;;;;;;;36.48;19.41;100386.63;5254310;27;33945;-88
2021/06/17 09:08:38;;;;;;;;;;;;;;;37.26;18.83;100372.66;5219309;27;34356;-90
2021/06/17 09:11:17;;;;;;;;;;;;;;;37.45;18.26;100378.31;5237053;27;33145;-89
2021/06/17 09:13:44;;;;;;;;;;;;;;;36.44;19.21;100383.47;5219194;27;34369;-88
2021/06/17 09:16:23;;;;;;;;;;;;;;;37.43;17.99;100382.06;5236280;27;34570;-88
2021/06/17 09:18:50;;;;;;;;;;;;;;;36.46;18.93;100389.56;5219331;27;32866;-89
2021/06/17 09:21:18;;;;;;;;;;;;;;;37.82;17.80;100382.28;5219177;27;33247;-89
2021/06/17 09:23:49;;;;;;;;;;;;;;;38.47;17.23;100376.03;5237761;27;34210;-88
2021/06/17 09:26:19;;;;;;;;;;;;;;;38.44;17.19;100379.22;5238918;27;34475;-89
2021/06/17 09:28:51;;;;;;;;;;;;;;;38.40;17.29;100375.22;5239768;27;33347;-89
2021/06/17 09:31:20;;;;;;;;;;;;;;;38.00;17.91;100384.34;5255440;27;33074;-89
2021/06/17 09:33:49;;;;;;;;;;;;;;;37.40;18.05;100377.06;5237959;27;33478;-89
2021/06/17 09:36:19;;;;;;;;;;;;;;;38.21;17.21;100383.22;5256691;27;32961;-89
2021/06/17 09:38:47;;;;;;;;;;;;;;;37.71;17.90;100386.44;5254744;27;33835;-89
2021/06/17 09:41:31;;;;;;;;;;;;;;;37.16;18.37;100381.19;5236544;27;33301;-89
2021/06/17 09:43:58;;;;;;;;;;;;;;;38.68;17.20;100385.78;5237129;27;32939;-89
2021/06/17 09:46:26;;;;;;;;;;;;;;;37.56;18.04;100380.38;5236350;27;33242;-89
2021/06/17 09:48:54;;;;;;;;;;;;;;;38.32;17.18;100379.03;5235735;27;32834;-89
2021/06/17 09:51:28;;;;;;;;;;;;;;;38.63;17.11;100377.44;5237194;27;33056;-88
2021/06/17 09:54:10;;;;;;;;;;;;;;;38.99;16.89;100386.06;5236474;27;33911;-88
2021/06/17 09:56:37;;;;;;;;;;;;;;;39.55;16.51;100377.03;5254517;27;34803;-89
2021/06/17 09:59:07;;;;;;;;;;;;;;;39.84;16.07;100377.41;5236337;27;33299;-89
2021/06/17 10:01:37;;;;;;;;;;;;;;;39.82;15.77;100374.06;5254614;27;32412;-88
2021/06/17 10:04:07;;;;;;;;;;;;;;;38.81;16.78;100373.16;5236754;27;33644;-89
2021/06/17 10:06:35;;;;;;;;;;;;;;;39.52;16.22;100374.75;5254325;27;32902;-89
2021/06/17 10:09:10;;;;;;;;;;;;;;;39.77;15.93;100371.19;5254857;27;34667;-88
2021/06/17 10:11:38;;;;;;;;;;;;;;;39.58;16.07;100376.59;5236596;27;31958;-87
2021/06/17 10:14:06;;;;;;;;;;;;;;;39.27;16.76;100376.66;5236607;27;33059;-88
2021/06/17 10:16:35;;;;;;;;;;;;;;;38.20;17.70;100373.41;5219254;27;33503;-88
2021/06/17 10:19:03;;;;;;;;;;;;;;;39.23;16.48;100377.09;5254194;27;32758;-88
2021/06/17 10:21:32;;;;;;;;;;;;;;;39.02;16.74;100366.53;5237410;27;33385;-88
2021/06/17 10:24:00;;;;;;;;;;;;;;;39.10;16.72;100366.25;5219126;27;33152;-89
2021/06/17 10:26:30;;;;;;;;;;;;;;;38.93;16.69;100360.50;5238724;27;33053;-90
2021/06/17 10:28:58;;;;;;;;;;;;;;;39.27;16.55;100355.69;5254571;27;32915;-90
2021/06/17 10:31:39;;;;;;;;;;;;;;;39.57;16.42;100352.25;5239818;27;32405;-89
2021/06/17 10:34:22;;;;;;;;;;;;;;;39.70;15.77;100364.97;5256516;27;34273;-88
2021/06/17 10:37:09;;;;;;;;;;;;;;;39.30;14.72;100357.12;5272615;27;33124;-89
2021/06/17 10:39:38;;;;;;;;;;;;;;;39.06;15.57;100362.31;5254791;27;33736;-89
2021/06/17 10:42:05;;;;;;;;;;;;;;;39.38;15.50;100357.66;5239209;27;32604;-90
2021/06/17 10:44:37;;;;;;;;;;;;;;;38.18;16.95;100348.28;5256808;27;34091;-89
2021/06/17 10:47:05;;;;;;;;;;;;;;;38.82;16.42;100353.88;5240841;27;32960;-91
2021/06/17 10:49:42;;;;;;;;;;;;;;;39.44;15.87;100355.97;5256518;27;33736;-90
2021/06/17 10:52:26;;;;;;;;;;;;;;;39.29;15.56;100348.13;5254372;27;32109;-90
2021/06/17 10:54:58;;;;;;;;;;;;;;;39.67;15.01;100346.34;5236986;27;34330;-88
2021/06/17 10:57:53;;;;;;;;;;;;;;;39.95;14.77;100345.00;5254535;27;32970;-87
2021/06/17 11:00:30;;;;;;;;;;;;;;;39.48;15.00;100350.88;5254940;27;34122;-89
2021/06/17 11:03:18;;;;;;;;;;;;;;;40.29;14.35;100346.28;5255044;27;32916;-89
2021/06/17 11:05:47;;;;;;;;;;;;;;;40.52;13.72;100344.75;5254265;27;33775;-89
2021/06/17 11:08:19;;;;;;;;;;;;;;;40.37;14.02;100342.41;5258876;27;35180;-89
2021/06/17 11:10:59;;;;;;;;;;;;;;;39.85;14.82;100346.34;5240564;27;33180;-88
2021/06/17 11:13:32;;;;;;;;;;;;;;;40.67;13.95;100336.13;5257514;27;32301;-88
2021/06/17 11:16:00;;;;;;;;;;;;;;;40.51;13.97;100341.16;5220469;27;32834;-89
2021/06/17 11:18:40;;;;;;;;;;;;;;;41.12;13.52;100340.31;5254573;27;32803;-89
2021/06/17 11:21:23;;;;;;;;;;;;;;;40.51;13.74;100337.62;5274076;27;33730;-89
2021/06/17 11:24:13;;;;;;;;;;;;;;;40.70;13.17;100336.50;5236791;27;32729;-89
2021/06/17 11:26:44;;;;;;;;;;;;;;;41.09;12.47;100327.94;5273373;27;33896;-89
2021/06/17 11:29:34;;;;;;;;;;;;;;;40.72;12.19;100322.63;5241841;27;34130;-88
2021/06/17 11:32:03;;;;;;;;;;;;;;;40.40;13.08;100334.56;5236511;27;32578;-89
2021/06/17 11:34:36;;;;;;;;;;;;;;;40.59;12.44;100315.44;5237355;27;32484;-89
2021/06/17 11:37:14;;;;;;;;;;;;;;;40.93;12.44;100314.94;5253934;27;33845;-89
2021/06/17 11:39:45;;;;;;;;;;;;;;;41.26;12.39;100317.16;5236369;27;33391;-89
2021/06/17 11:42:20;;;;;;;;;;;;;;;41.15;12.72;100316.06;5236588;27;32928;-89
2021/06/17 11:44:58;;;;;;;;;;;;;;;40.73;13.38;100316.09;5201946;27;34143;-88
2021/06/17 11:47:26;;;;;;;;;;;;;;;40.95;13.05;100326.50;5253954;27;33657;-89
2021/06/17 11:50:01;;;;;;;;;;;;;;;40.62;12.87;100308.69;5236449;27;32841;-89
2021/06/17 11:52:29;;;;;;;;;;;;;;;40.51;13.15;100305.69;5254156;27;33976;-89
2021/06/17 11:54:57;;;;;;;;;;;;;;;40.24;13.14;100316.94;5219055;27;32152;-89
2021/06/17 11:57:26;;;;;;;;;;;;;;;41.28;12.39;100297.78;5236604;27;34671;-89
2021/06/17 11:59:54;;;;;;;;;;;;;;;40.06;13.55;100306.03;5252479;27;34575;-90
2021/06/17 12:02:23;;;;;;;;;;;;;;;40.38;13.05;100303.12;5254311;27;33797;-89
2021/06/17 12:05:04;;;;;;;;;;;;;;;41.18;12.64;100299.19;5237709;27;32065;-89
2021/06/17 12:07:40;;;;;;;;;;;;;;;40.68;13.61;100303.12;5256595;27;33841;-91
2021/06/17 12:10:21;;;;;;;;;;;;;;;41.47;12.83;100302.09;5238339;27;33165;-89
2021/06/17 12:12:51;;;;;;;;;;;;;;;41.34;13.21;100303.12;5238862;27;33799;-90
2021/06/17 12:15:26;;;;;;;;;;;;;;;41.47;12.88;100295.78;5221148;27;33317;-90
2021/06/17 12:17:55;;;;;;;;;;;;;;;41.13;12.55;100295.53;5238972;27;33936;-90
2021/06/17 12:20:23;;;;;;;;;;;;;;;41.78;12.06;100291.81;5256699;27;33621;-90
2021/06/17 12:22:56;;;;;;;;;;;;;;;42.13;11.76;100285.41;5277022;27;34771;-90
2021/06/17 12:25:25;;;;;;;;;;;;;;;41.87;12.47;100295.84;5239679;27;33353;-90
2021/06/17 12:27:53;;;;;;;;;;;;;;;41.67;12.46;100289.91;5222125;27;33949;-89
2021/06/17 12:30:31;;;;;;;;;;;;;;;41.01;13.17;100288.13;5239705;27;34248;-90
2021/06/17 12:33:02;;;;;;;;;;;;;;;40.73;13.69;100291.50;5241122;27;32855;-89
2021/06/17 12:35:41;;;;;;;;;;;;;;;39.89;14.86;100287.56;5257085;27;33899;-90
2021/06/17 12:38:09;;;;;;;;;;;;;;;39.53;15.02;100289.19;5239278;27;32459;-89
2021/06/17 12:40:38;;;;;;;;;;;;;;;40.12;14.49;100287.94;5239275;27;32940;-89
2021/06/17 12:43:07;;;;;;;;;;;;;;;40.19;14.40;100288.69;5238996;27;32809;-90
2021/06/17 12:45:35;;;;;;;;;;;;;;;40.29;14.04;100275.31;5239478;27;32213;-89
2021/06/17 12:48:10;;;;;;;;;;;;;;;40.14;14.21;100283.09;5224557;27;32939;-90
2021/06/17 12:53:24;;;;;;;;;;;;;;;40.32;13.95;100272.13;5243249;27;33067;-92
2021/06/17 12:55:52;;;;;;;;;;;;;;;38.92;14.38;100275.25;5240253;27;32820;-89